createdAt,value
2022-10-28T00:02:42.668Z,3.60
2022-10-28T00:05:45.677Z,3.27
2022-10-28T00:08:49.275Z,3.40
2022-10-28T00:11:52.751Z,3.37
2022-10-28T00:14:55.723Z,3.40
2022-10-28T00:18:00.249Z,3.20
2022-10-28T00:21:03.972Z,2.63
2022-10-28T00:24:08.405Z,4.10
2022-10-28T00:27:11.350Z,3.27
2022-10-28T00:30:14.478Z,3.00
2022-10-28T00:33:18.744Z,2.73
2022-10-28T00:36:23.951Z,3.00
2022-10-28T00:39:27.549Z,3.80
2022-10-28T00:42:30.532Z,3.90
2022-10-28T00:45:33.574Z,3.23
2022-10-28T00:48:41.250Z,3.10
2022-10-28T00:51:45.342Z,3.57
2022-10-28T00:54:49.217Z,2.80
2022-10-28T00:57:56.561Z,3.30
2022-10-28T01:00:59.576Z,3.10
2022-10-28T01:04:04.035Z,2.93
2022-10-28T01:07:07.446Z,2.97
2022-10-28T01:10:11.708Z,3.23
2022-10-28T01:13:22.182Z,3.00
2022-10-28T01:16:34.937Z,2.97
2022-10-28T01:20:12.945Z,2.70
2022-10-28T01:23:24.378Z,2.80
2022-10-28T01:27:11.983Z,2.90
2022-10-28T01:30:17.147Z,3.33
2022-10-28T01:33:27.592Z,2.83
2022-10-28T01:36:36.909Z,2.77
2022-10-28T01:39:48.023Z,2.83
2022-10-28T01:42:56.993Z,2.83
2022-10-28T01:46:05.361Z,2.80
2022-10-28T01:49:14.480Z,2.97
2022-10-28T01:52:22.251Z,2.93
2022-10-28T01:55:28.075Z,2.87
2022-10-28T01:58:33.334Z,2.83
2022-10-28T02:01:37.904Z,3.03
2022-10-28T02:04:42.363Z,3.07
2022-10-28T02:07:45.867Z,3.23
2022-10-28T02:11:00.510Z,2.80
2022-10-28T02:14:14.230Z,2.77
2022-10-28T02:17:25.781Z,3.23
2022-10-28T02:20:35.770Z,3.00
2022-10-28T02:23:45.670Z,3.33
2022-10-28T02:26:54.872Z,3.27
2022-10-28T02:30:04.286Z,2.87
2022-10-28T02:33:11.475Z,3.37
2022-10-28T02:36:19.127Z,3.13
2022-10-28T02:39:25.327Z,3.10
2022-10-28T02:42:31.073Z,3.13
2022-10-28T02:45:39.703Z,3.10
2022-10-28T02:48:46.153Z,3.00
2022-10-28T02:51:54.596Z,2.80
2022-10-28T02:54:59.811Z,3.13
2022-10-28T02:58:02.945Z,3.30
2022-10-28T03:01:06.086Z,3.20
2022-10-28T03:04:09.117Z,3.20
2022-10-28T03:07:13.437Z,3.30
2022-10-28T03:10:17.110Z,3.17
2022-10-28T03:13:20.055Z,3.43
2022-10-28T03:16:23.016Z,3.37
2022-10-28T03:19:25.965Z,3.43
2022-10-28T03:22:30.271Z,3.40
2022-10-28T03:25:33.227Z,2.80
2022-10-28T03:28:36.236Z,2.97
2022-10-28T03:31:39.187Z,2.93
2022-10-28T03:34:42.149Z,3.20
2022-10-28T03:37:46.470Z,3.07
2022-10-28T03:40:49.701Z,3.30
2022-10-28T03:43:52.647Z,3.17
2022-10-28T03:46:55.673Z,3.10
2022-10-28T03:49:58.601Z,2.87
2022-10-28T03:53:02.893Z,3.10
2022-10-28T03:56:06.499Z,2.97
2022-10-28T03:59:10.532Z,3.10
2022-10-28T04:02:15.580Z,3.03
2022-10-28T04:05:19.050Z,3.17
2022-10-28T04:08:23.490Z,3.17
2022-10-28T04:11:26.498Z,3.87
2022-10-28T04:14:29.480Z,3.17
2022-10-28T04:17:34.562Z,3.13
2022-10-28T04:20:37.627Z,3.17
2022-10-28T04:23:41.967Z,3.10
2022-10-28T04:26:44.909Z,3.10
2022-10-28T04:29:47.877Z,2.77
2022-10-28T04:32:50.843Z,3.40
2022-10-28T04:35:54.008Z,3.03
2022-10-28T04:38:58.358Z,2.90
2022-10-28T04:42:01.345Z,3.57
2022-10-28T04:45:04.477Z,3.73
2022-10-28T04:48:07.981Z,3.03
2022-10-28T04:51:10.923Z,3.33
2022-10-28T04:54:15.207Z,3.27
2022-10-28T04:57:18.165Z,3.67
2022-10-28T05:00:21.252Z,3.30
2022-10-28T05:03:24.238Z,3.47
2022-10-28T05:06:27.151Z,3.20
2022-10-28T05:09:31.487Z,3.10
2022-10-28T05:12:34.432Z,3.40
2022-10-28T05:15:37.364Z,3.57
2022-10-28T05:18:40.340Z,3.00
2022-10-28T05:21:43.333Z,3.73
2022-10-28T05:24:47.601Z,3.10
2022-10-28T05:27:50.789Z,3.30
2022-10-28T05:30:53.776Z,3.10
2022-10-28T05:33:56.812Z,3.50
2022-10-28T05:36:59.771Z,3.13
2022-10-28T05:40:04.528Z,3.13
2022-10-28T05:43:09.333Z,3.43
2022-10-28T05:46:12.385Z,3.50
2022-10-28T05:49:20.264Z,3.63
2022-10-28T05:52:23.218Z,3.40
2022-10-28T05:55:29.929Z,3.60
2022-10-28T05:58:32.883Z,3.93
2022-10-28T06:01:35.937Z,3.30
2022-10-28T06:04:38.914Z,3.20
2022-10-28T06:07:42.691Z,3.40
2022-10-28T06:10:55.231Z,3.80
2022-10-28T06:13:58.207Z,3.83
2022-10-28T06:17:01.153Z,3.50
2022-10-28T06:20:05.244Z,4.03
2022-10-28T06:23:08.215Z,3.53
2022-10-28T06:26:12.612Z,3.73
2022-10-28T06:29:15.666Z,4.10
2022-10-28T06:32:18.611Z,4.70
2022-10-28T06:35:21.597Z,4.07
2022-10-28T06:38:24.575Z,4.13
2022-10-28T06:41:28.882Z,3.50
2022-10-28T06:44:31.819Z,4.10
2022-10-28T06:47:40.562Z,3.57
2022-10-28T06:50:44.644Z,4.33
2022-10-28T06:53:50.142Z,4.00
2022-10-28T06:56:54.506Z,4.20
2022-10-28T06:59:57.446Z,4.27
2022-10-28T07:03:00.976Z,4.00
2022-10-28T07:06:04.590Z,3.83
2022-10-28T07:09:08.002Z,4.27
2022-10-28T07:12:13.052Z,4.53
2022-10-28T07:15:16.102Z,4.17
2022-10-28T07:18:19.097Z,3.77
2022-10-28T07:21:28.223Z,4.40
2022-10-28T07:24:31.367Z,4.50
2022-10-28T07:27:35.757Z,4.23
2022-10-28T07:30:38.736Z,4.20
2022-10-28T07:33:41.719Z,4.40
2022-10-28T07:36:44.656Z,4.43
2022-10-28T07:39:47.672Z,4.27
2022-10-28T07:42:52.822Z,4.30
2022-10-28T07:45:59.148Z,4.30
2022-10-28T07:49:02.389Z,4.37
2022-10-28T07:52:05.688Z,4.30
2022-10-28T07:55:09.368Z,4.57
2022-10-28T07:58:13.661Z,4.97
2022-10-28T08:01:18.604Z,4.47
2022-10-28T08:04:21.792Z,4.33
2022-10-28T08:07:24.811Z,4.23
2022-10-28T08:10:28.361Z,3.97
2022-10-28T08:13:35.743Z,4.37
2022-10-28T08:16:41.016Z,4.07
2022-10-28T08:19:43.966Z,4.13
2022-10-28T08:22:47.036Z,3.97
2022-10-28T08:25:50.909Z,4.13
2022-10-28T08:28:55.240Z,4.30
2022-10-28T08:31:58.766Z,4.03
2022-10-28T08:35:02.099Z,4.10
2022-10-28T08:38:05.628Z,3.90
2022-10-28T08:41:23.568Z,4.33
2022-10-28T08:44:46.196Z,3.67
2022-10-28T08:47:58.644Z,4.20
2022-10-28T08:51:07.187Z,3.50
2022-10-28T08:54:17.597Z,3.70
2022-10-28T08:57:24.839Z,3.33
2022-10-28T09:00:31.611Z,3.90
2022-10-28T09:03:39.658Z,3.53
2022-10-28T09:06:42.617Z,3.90
2022-10-28T09:09:46.204Z,3.17
2022-10-28T09:12:59.179Z,3.33
2022-10-28T09:16:11.248Z,3.60
2022-10-28T09:19:27.779Z,3.20
2022-10-28T09:22:39.393Z,3.43
2022-10-28T09:25:49.809Z,3.13
2022-10-28T09:29:04.719Z,3.30
2022-10-28T09:32:18.123Z,3.20
2022-10-28T09:35:25.806Z,2.97
2022-10-28T09:38:32.330Z,3.50
2022-10-28T09:41:38.595Z,3.27
2022-10-28T09:44:45.897Z,3.00
2022-10-28T09:47:56.609Z,2.80
2022-10-28T09:51:00.769Z,3.13
2022-10-28T09:54:04.020Z,3.03
2022-10-28T09:57:10.611Z,2.93
2022-10-28T10:00:17.614Z,3.13
2022-10-28T10:03:21.939Z,2.77
2022-10-28T10:06:29.471Z,3.03
2022-10-28T10:09:34.400Z,2.90
2022-10-28T10:12:38.686Z,3.20
2022-10-28T10:15:46.876Z,2.80
2022-10-28T10:18:57.127Z,3.20
2022-10-28T10:22:00.073Z,2.77
2022-10-28T10:25:03.616Z,3.00
2022-10-28T10:28:15.793Z,3.20
2022-10-28T10:31:21.004Z,2.90
2022-10-28T10:34:30.081Z,2.57
2022-10-28T10:37:35.819Z,3.80
2022-10-28T10:40:48.203Z,3.17
2022-10-28T10:43:52.391Z,3.07
2022-10-28T10:47:19.256Z,2.70
2022-10-28T10:50:28.830Z,2.70
2022-10-28T10:53:33.489Z,2.00
2022-10-28T10:56:36.646Z,2.57
2022-10-28T10:59:45.730Z,2.20
2022-10-28T11:02:52.225Z,2.30
2022-10-28T11:09:32.384Z,2.00
2022-10-28T11:12:37.205Z,2.03
2022-10-28T11:15:40.237Z,1.70
2022-10-28T11:18:45.322Z,2.60
2022-10-28T11:22:00.079Z,2.23
2022-10-28T11:25:35.324Z,2.03
2022-10-28T11:28:56.252Z,2.03
2022-10-28T11:32:13.873Z,2.60
2022-10-28T11:35:36.700Z,2.33
2022-10-28T11:39:20.966Z,2.33
2022-10-28T11:42:32.538Z,3.00
2022-10-28T11:45:45.792Z,2.10
2022-10-28T11:49:10.024Z,2.30
2022-10-28T11:52:25.270Z,2.43
2022-10-28T11:55:36.205Z,1.93
2022-10-28T11:58:48.785Z,2.00
2022-10-28T12:02:02.557Z,2.10
2022-10-28T12:05:14.862Z,2.43
2022-10-28T12:08:33.461Z,2.37
2022-10-28T12:15:12.245Z,2.70
2022-10-28T12:18:21.586Z,2.60
2022-10-28T12:21:32.303Z,2.47
2022-10-28T12:24:37.892Z,2.80
2022-10-28T12:27:47.115Z,2.63
2022-10-28T12:30:52.409Z,2.13
2022-10-28T12:33:59.204Z,2.00
2022-10-28T12:37:07.132Z,1.97
2022-10-28T12:40:17.948Z,2.30
2022-10-28T12:43:26.018Z,2.50
2022-10-28T12:46:39.836Z,2.30
2022-10-28T12:49:53.252Z,2.30
2022-10-28T12:53:16.201Z,2.60
2022-10-28T12:56:25.592Z,2.20
2022-10-28T12:59:33.540Z,2.33
2022-10-28T13:02:39.324Z,2.43
2022-10-28T13:05:46.704Z,2.07
2022-10-28T13:09:24.063Z,2.30
2022-10-28T13:13:07.976Z,2.40
2022-10-28T13:16:33.397Z,2.83
2022-10-28T13:20:02.232Z,2.20
2022-10-28T13:23:24.029Z,2.90
2022-10-28T13:26:29.571Z,2.57
2022-10-28T13:29:35.766Z,1.90
2022-10-28T13:32:41.902Z,2.33
2022-10-28T13:35:47.085Z,2.30
2022-10-28T13:38:53.886Z,2.00
2022-10-28T13:42:31.893Z,2.47
2022-10-28T13:45:53.687Z,2.90
2022-10-28T13:49:23.893Z,2.37
2022-10-28T13:52:26.881Z,2.47
2022-10-28T13:55:44.794Z,2.50
2022-10-28T13:58:55.772Z,2.60
2022-10-28T14:02:32.332Z,2.00
2022-10-28T14:05:49.257Z,2.53
2022-10-28T14:08:52.348Z,2.10
2022-10-28T14:12:14.278Z,2.00
2022-10-28T14:15:21.141Z,2.57
2022-10-28T14:21:58.973Z,2.83
2022-10-28T14:25:43.529Z,2.40
2022-10-28T14:28:56.630Z,3.17
2022-10-28T14:31:59.592Z,2.40
2022-10-28T14:35:04.099Z,2.73
2022-10-28T14:38:34.302Z,2.60
2022-10-28T14:41:51.246Z,2.50
2022-10-28T14:45:17.058Z,2.63
2022-10-28T14:48:41.331Z,2.50
2022-10-28T14:51:45.411Z,2.40
2022-10-28T14:54:55.373Z,2.40
2022-10-28T14:58:13.982Z,2.50
2022-10-28T15:01:39.550Z,2.57
2022-10-28T15:04:45.526Z,2.70
2022-10-28T15:07:49.318Z,2.40
2022-10-28T15:10:53.732Z,2.60
2022-10-28T15:14:01.494Z,2.70
2022-10-28T15:17:12.812Z,3.27
2022-10-28T15:20:22.164Z,2.80
2022-10-28T15:23:25.129Z,3.33
2022-10-28T15:26:29.760Z,3.17
2022-10-28T15:29:33.034Z,2.60
2022-10-28T15:32:36.762Z,3.43
2022-10-28T15:35:40.979Z,3.20
2022-10-28T15:38:44.858Z,4.07
2022-10-28T15:41:52.343Z,3.90
2022-10-28T15:44:56.908Z,3.07
2022-10-28T15:48:03.591Z,3.40
2022-10-28T15:51:14.035Z,3.60
2022-10-28T15:54:20.653Z,3.93
2022-10-28T15:57:26.653Z,3.87
2022-10-28T16:00:32.206Z,3.80
2022-10-28T16:03:43.726Z,4.33
2022-10-28T16:06:47.567Z,4.03
2022-10-28T16:09:51.954Z,4.30
2022-10-28T16:12:56.325Z,3.97
2022-10-28T16:16:05.317Z,3.97
2022-10-28T16:19:10.770Z,4.23
2022-10-28T16:22:14.970Z,3.93
2022-10-28T16:25:20.109Z,3.50
2022-10-28T16:28:26.577Z,4.37
2022-10-28T16:31:31.619Z,3.90
2022-10-28T16:34:34.641Z,4.37
2022-10-28T16:37:44.198Z,4.20
2022-10-28T16:40:51.853Z,4.57
2022-10-28T16:43:56.674Z,4.23
2022-10-28T16:46:59.676Z,5.33
2022-10-28T16:50:02.645Z,5.13
2022-10-28T16:53:05.593Z,5.40
2022-10-28T16:56:14.375Z,4.30
2022-10-28T16:59:20.289Z,4.63
2022-10-28T17:02:26.822Z,3.50
2022-10-28T17:05:30.315Z,4.33
2022-10-28T17:11:56.291Z,4.07
2022-10-28T17:15:00.576Z,4.67
2022-10-28T17:18:03.558Z,3.90
2022-10-28T17:21:06.884Z,4.00
2022-10-28T17:24:09.989Z,3.83
2022-10-28T17:27:13.777Z,3.40
2022-10-28T17:30:18.948Z,3.10
2022-10-28T17:33:21.973Z,3.50
2022-10-28T17:36:24.984Z,3.27
2022-10-28T17:39:27.951Z,3.20
2022-10-28T17:42:30.924Z,2.63
2022-10-28T17:45:35.234Z,3.13
2022-10-28T17:48:39.649Z,3.33
2022-10-28T17:51:42.688Z,3.13
2022-10-28T17:54:45.982Z,3.20
2022-10-28T17:57:49.002Z,3.40
2022-10-28T18:00:58.890Z,3.67
2022-10-28T18:04:03.532Z,3.33
2022-10-28T18:07:06.565Z,3.87
2022-10-28T18:10:10.619Z,3.73
2022-10-28T18:13:14.831Z,3.60
2022-10-28T18:16:20.850Z,3.40
2022-10-28T18:19:23.807Z,3.53
2022-10-28T18:25:34.637Z,3.97
2022-10-28T18:28:38.716Z,3.30
2022-10-28T18:31:44.301Z,3.60
2022-10-28T18:34:47.334Z,3.10
2022-10-28T18:37:50.573Z,3.90
2022-10-28T18:40:53.575Z,3.87
2022-10-28T18:43:57.868Z,3.50
2022-10-28T18:47:02.190Z,3.33
2022-10-28T18:50:05.803Z,4.00
2022-10-28T18:53:09.087Z,3.37
2022-10-28T18:56:14.023Z,3.87
2022-10-28T18:59:17.017Z,3.10
2022-10-28T19:02:21.436Z,3.10
2022-10-28T19:05:24.583Z,3.23
2022-10-28T19:08:27.559Z,3.90
2022-10-28T19:11:31.963Z,3.43
2022-10-28T19:14:34.965Z,3.70
2022-10-28T19:17:39.276Z,4.20
2022-10-28T19:20:42.222Z,3.43
2022-10-28T19:23:45.222Z,4.37
2022-10-28T19:26:48.183Z,3.97
2022-10-28T19:29:51.176Z,3.90
2022-10-28T19:32:55.671Z,3.80
2022-10-28T19:36:03.669Z,3.70
2022-10-28T19:39:06.650Z,3.47
2022-10-28T19:42:09.631Z,3.73
2022-10-28T19:45:12.678Z,3.80
2022-10-28T19:48:17.013Z,3.87
2022-10-28T19:51:22.572Z,4.10
2022-10-28T19:54:25.721Z,4.30
2022-10-28T19:57:28.786Z,4.57
2022-10-28T20:00:31.782Z,4.33
2022-10-28T20:03:37.718Z,4.70
2022-10-28T20:06:42.241Z,4.40
2022-10-28T20:09:45.195Z,4.33
2022-10-28T20:12:48.184Z,4.63
2022-10-28T20:15:51.188Z,4.10
2022-10-28T20:18:56.846Z,4.17
2022-10-28T20:21:59.946Z,4.23
2022-10-28T20:25:08.351Z,4.20
2022-10-28T20:28:11.412Z,4.43
2022-10-28T20:31:16.446Z,4.57
2022-10-28T20:34:20.914Z,4.50
2022-10-28T20:37:23.953Z,5.57
2022-10-28T20:40:26.948Z,4.80
2022-10-28T20:43:30.498Z,5.60
2022-10-28T20:46:34.282Z,4.47
2022-10-28T20:49:39.981Z,4.90
2022-10-28T20:52:42.964Z,4.90
2022-10-28T20:55:46.444Z,4.60
2022-10-28T20:58:49.453Z,5.10
2022-10-28T21:01:52.682Z,5.03
2022-10-28T21:04:57.146Z,5.63
2022-10-28T21:08:00.864Z,5.77
2022-10-28T21:11:04.410Z,5.23
2022-10-28T21:14:07.546Z,5.43
2022-10-28T21:17:10.672Z,4.77
2022-10-28T21:20:15.157Z,5.03
2022-10-28T21:23:19.357Z,5.60
2022-10-28T21:26:23.000Z,5.37
2022-10-28T21:29:25.968Z,4.97
2022-10-28T21:32:28.920Z,5.57
2022-10-28T21:35:33.215Z,5.60
2022-10-28T21:38:36.809Z,5.77
2022-10-28T21:41:39.785Z,5.33
2022-10-28T21:44:42.711Z,5.57
2022-10-28T21:47:45.904Z,5.03
2022-10-28T21:50:52.679Z,6.30
2022-10-28T21:53:55.648Z,4.87
2022-10-28T21:56:58.682Z,4.40
2022-10-28T22:00:01.635Z,5.23
2022-10-28T22:03:04.712Z,5.17
2022-10-28T22:06:09.597Z,5.03
2022-10-28T22:09:12.547Z,4.93
2022-10-28T22:12:15.521Z,5.33
2022-10-28T22:15:18.460Z,4.33
2022-10-28T22:18:21.436Z,6.63
2022-10-28T22:21:27.302Z,4.57
2022-10-28T22:24:30.245Z,4.70
2022-10-28T22:27:33.497Z,4.47
2022-10-28T22:30:36.454Z,4.50
2022-10-28T22:33:40.031Z,5.07
2022-10-28T22:36:44.941Z,4.60
2022-10-28T22:39:47.875Z,4.20
2022-10-28T22:42:50.835Z,4.60
2022-10-28T22:45:57.201Z,4.73
2022-10-28T22:49:00.678Z,4.67
2022-10-28T22:52:05.073Z,4.80
2022-10-28T22:55:08.442Z,5.07
2022-10-28T22:58:11.529Z,4.83
2022-10-28T23:01:16.883Z,5.03
2022-10-28T23:04:19.920Z,4.80
2022-10-28T23:07:24.290Z,5.50
2022-10-28T23:10:27.437Z,6.53
2022-10-28T23:13:30.495Z,5.63
2022-10-28T23:16:33.517Z,4.30
2022-10-28T23:19:36.536Z,4.50
2022-10-28T23:22:40.839Z,5.33
2022-10-28T23:25:43.797Z,4.53
2022-10-28T23:28:50.609Z,5.27
2022-10-28T23:31:53.568Z,4.43
2022-10-28T23:34:56.535Z,4.27
2022-10-28T23:38:01.451Z,4.40
2022-10-28T23:41:06.774Z,3.90
2022-10-28T23:44:09.778Z,4.10
2022-10-28T23:47:12.810Z,4.10
2022-10-28T23:50:15.905Z,3.90
2022-10-28T23:53:20.549Z,3.77
2022-10-28T23:56:23.578Z,3.50
2022-10-28T23:59:26.593Z,3.87
